Arapahoe, NE

8:16 PM CST on December 03, 2016 (GMT -0600)
Elwood | | Change Station

Elev 2690 ft 40.59 °N, 99.86 °W | Updated 18 seconds ago

Overcast
Overcast
31.6 °F
Feels Like 32 °F
N
1.1
Wind Variable Wind from WSW
Gusts 2.5 mph

Today
High -- | Low -- °F
--% Chance of Precip.
Yesterday
High -- | Low -- °F
Precip. -- in
Pressure 30.04 in
Visibility 10.0 miles
Clouds Overcast 400 ft
Windchill 32 °F
Dew Point 30 °F
Humidity 93%
Rainfall 0.00 in
Snow Depth Not available.
7:45 AM 5:13 PM
Waxing Crescent, 19% visible
METAR KHDE 040155Z AUTO 19008KT 10SM OVC004 00/00 A3004 RMK AO2 T00001005
Pressure 30.04 in
Visibility 10.0 miles
Clouds Overcast 400 ft
Windchill 32 °F
Dew Point 30 °F
Humidity 93%
Rainfall 0.00 in
Snow Depth Not available.
7:45 AM 5:13 PM
Waxing Crescent, 19% visible
METAR KHDE 040155Z AUTO 19008KT 10SM OVC004 00/00 A3004 RMK AO2 T00001005

10-Day Weather Forecast

Almanac

Astronomy

Dec. 03, 2016 Rise Set
Actual Time
Civil Twilight
Nautical Twilight
Astronomical Twilight
Moon
Length of Visible Light
Length of Day
Tomorrow will be .
, % of the Moon is Illuminated

Today's Extremes

State Highs State Lows

Community

WunderPhotos

Upload Photos

1,955,560 photos uploaded!

WunderBlog® & News

Nearby

Air Quality

  Air Quality AQ Index Pollutant
Not available.

Snow Depth

Station Depth Elevation

Earthquake Activity

City Distance Mag. Time & Date
Minimum magnitude displayed is 2.5.

Coastal Water Temperatures

Place Temperature

Stations

Nearby Weather Stations

Station Location Temp. Windchill Dew Point Humidity Wind Precip. Elev Updated Type
                   

Watches & Warnings

There are currently no watches in effect.